Time;durP1;ratioP1;P1;durP2;ratioP2;P2;SDS_P1;SDS_P2;PMS_P1;PMS_P2;Temp;Humidity;BMP_temperature;BMP_pressure;BME280_temperature;BME280_humidity;BME280_pressure;Samples;Min_cycle;Max_cycle;Signal;HPM_P1;HPM_P2
2023/09/30 00:01:21;;;;;;;10.68;2.28;;;;;;;;;;4901704;29;20032;-79
2023/09/30 00:03:48;;;;;;;6.07;1.95;;;;;;;;;;4902925;29;20032;-79
2023/09/30 00:06:14;;;;;;;11.13;2.20;;;;;;;;;;4902458;29;20044;-79
2023/09/30 00:08:41;;;;;;;9.73;2.05;;;;;;;;;;4902209;29;20036;-79
2023/09/30 00:11:07;;;;;;;12.05;2.50;;;;;;;;;;4902376;29;20084;-79
2023/09/30 00:13:34;;;;;;;7.85;2.17;;;;;;;;;;4902961;29;20036;-79
2023/09/30 00:16:00;;;;;;;9.20;2.72;;;;;;;;;;4904426;29;20028;-79
2023/09/30 00:18:27;;;;;;;8.10;2.10;;;;;;;;;;4902461;29;20033;-79
2023/09/30 00:20:53;;;;;;;10.43;2.40;;;;;;;;;;4902163;29;20052;-79
2023/09/30 00:23:21;;;;;;;8.30;2.38;;;;;;;;;;4902406;29;20040;-80
2023/09/30 00:25:49;;;;;;;11.13;2.60;;;;;;;;;;4901984;29;20104;-79
2023/09/30 00:28:15;;;;;;;8.98;2.40;;;;;;;;;;4900421;29;20025;-79
2023/09/30 00:30:41;;;;;;;10.07;2.42;;;;;;;;;;4902130;29;20033;-79
2023/09/30 00:33:08;;;;;;;8.10;2.10;;;;;;;;;;4902240;29;20032;-79
2023/09/30 00:35:34;;;;;;;8.70;2.33;;;;;;;;;;4902011;29;20032;-80
2023/09/30 00:38:00;;;;;;;9.77;2.30;;;;;;;;;;4902211;29;20465;-80
2023/09/30 00:40:26;;;;;;;10.82;2.10;;;;;;;;;;4901773;29;20017;-80
2023/09/30 00:42:52;;;;;;;7.03;2.25;;;;;;;;;;4900290;29;20028;-79
2023/09/30 00:45:18;;;;;;;7.30;2.30;;;;;;;;;;4901684;29;20490;-79
2023/09/30 00:47:44;;;;;;;6.78;2.58;;;;;;;;;;4900821;29;20036;-79
2023/09/30 00:50:12;;;;;;;6.30;2.40;;;;;;;;;;4901547;29;20031;-80
2023/09/30 00:52:38;;;;;;;9.55;2.83;;;;;;;;;;4901960;29;20027;-79
2023/09/30 00:55:05;;;;;;;12.77;2.47;;;;;;;;;;4901729;29;20033;-79
2023/09/30 00:57:32;;;;;;;7.57;2.28;;;;;;;;;;4901280;29;20024;-79
2023/09/30 00:59:59;;;;;;;10.00;2.35;;;;;;;;;;4901650;29;20419;-80
2023/09/30 01:02:25;;;;;;;9.27;2.95;;;;;;;;;;4900125;29;20031;-80
2023/09/30 01:04:52;;;;;;;9.88;2.55;;;;;;;;;;4901131;29;20025;-79
2023/09/30 01:07:21;;;;;;;5.63;1.90;;;;;;;;;;4901139;29;20381;-79
2023/09/30 01:09:47;;;;;;;11.97;3.30;;;;;;;;;;4901261;29;20021;-80
2023/09/30 01:12:13;;;;;;;6.63;2.03;;;;;;;;;;4900501;29;20025;-79
2023/09/30 01:14:42;;;;;;;6.22;2.40;;;;;;;;;;4901353;29;20524;-79
2023/09/30 01:17:14;;;;;;;10.65;2.85;;;;;;;;;;4899724;29;20028;-79
2023/09/30 01:19:42;;;;;;;7.53;2.88;;;;;;;;;;4901340;29;20107;-79
2023/09/30 01:22:09;;;;;;;9.18;2.72;;;;;;;;;;4900820;29;20021;-80
2023/09/30 01:24:42;;;;;;;9.10;2.70;;;;;;;;;;4901826;29;20024;-80
2023/09/30 01:27:08;;;;;;;8.35;2.95;;;;;;;;;;4901147;29;20043;-79
2023/09/30 01:29:34;;;;;;;8.13;2.55;;;;;;;;;;4901038;29;20112;-79
2023/09/30 01:32:01;;;;;;;8.05;2.42;;;;;;;;;;4902307;29;20028;-80
2023/09/30 01:34:27;;;;;;;9.50;2.88;;;;;;;;;;4899607;29;20025;-79
2023/09/30 01:36:53;;;;;;;8.30;2.13;;;;;;;;;;4900553;29;20024;-80
2023/09/30 01:39:19;;;;;;;7.22;2.67;;;;;;;;;;4900946;29;20108;-79
2023/09/30 01:41:45;;;;;;;8.18;2.50;;;;;;;;;;4901117;29;20546;-79
2023/09/30 01:44:11;;;;;;;8.32;2.65;;;;;;;;;;4900601;29;20057;-79
2023/09/30 01:46:37;;;;;;;13.98;2.70;;;;;;;;;;4900801;29;20033;-79
2023/09/30 01:49:03;;;;;;;8.43;2.63;;;;;;;;;;4900663;29;20044;-79
2023/09/30 01:51:30;;;;;;;9.60;2.90;;;;;;;;;;4900547;29;20028;-80
2023/09/30 01:53:56;;;;;;;10.23;2.50;;;;;;;;;;4899074;29;20484;-80
2023/09/30 01:56:22;;;;;;;9.68;2.58;;;;;;;;;;4900339;29;20028;-79
2023/09/30 01:58:48;;;;;;;13.43;3.03;;;;;;;;;;4899597;29;20523;-80
2023/09/30 02:01:15;;;;;;;6.95;2.35;;;;;;;;;;4900128;29;20602;-79
2023/09/30 02:03:41;;;;;;;8.88;2.47;;;;;;;;;;4900584;29;20021;-80
2023/09/30 02:06:07;;;;;;;9.27;2.45;;;;;;;;;;4900029;29;20036;-79
2023/09/30 02:08:36;;;;;;;8.38;2.65;;;;;;;;;;4900564;29;20035;-80
2023/09/30 02:11:02;;;;;;;8.07;2.00;;;;;;;;;;4900074;29;20025;-80
2023/09/30 02:13:28;;;;;;;8.70;2.20;;;;;;;;;;4900166;29;20379;-80
2023/09/30 02:15:55;;;;;;;9.15;2.30;;;;;;;;;;4900333;29;20111;-79
2023/09/30 02:18:23;;;;;;;12.68;2.45;;;;;;;;;;4900394;29;20479;-79
2023/09/30 02:20:50;;;;;;;4.75;2.10;;;;;;;;;;4900622;29;20021;-79
2023/09/30 02:23:17;;;;;;;14.05;2.60;;;;;;;;;;4900139;29;20024;-79
2023/09/30 02:25:43;;;;;;;10.52;2.33;;;;;;;;;;4899932;29;20369;-79
2023/09/30 02:28:09;;;;;;;6.25;2.03;;;;;;;;;;4899901;29;20035;-80
2023/09/30 02:30:35;;;;;;;9.73;1.85;;;;;;;;;;4899730;29;20025;-80
2023/09/30 02:33:02;;;;;;;9.95;2.17;;;;;;;;;;4899847;29;20021;-79
2023/09/30 02:35:28;;;;;;;7.53;1.92;;;;;;;;;;4899361;29;20032;-80
2023/09/30 02:37:54;;;;;;;9.80;1.90;;;;;;;;;;4899909;29;20037;-80
2023/09/30 02:40:21;;;;;;;9.45;2.25;;;;;;;;;;4899462;29;20024;-79
2023/09/30 02:42:48;;;;;;;6.15;2.00;;;;;;;;;;4899839;29;20035;-79
2023/09/30 02:45:17;;;;;;;11.80;2.28;;;;;;;;;;4900198;29;20152;-79
2023/09/30 02:47:43;;;;;;;5.90;1.88;;;;;;;;;;4899488;29;20120;-80
2023/09/30 02:50:13;;;;;;;6.25;1.80;;;;;;;;;;4899528;29;20456;-79
2023/09/30 02:52:40;;;;;;;;;;;;;;;;;;4900272;29;20024;-79
2023/09/30 02:55:07;;;;;;;8.15;1.77;;;;;;;;;;4899758;29;20274;-80
2023/09/30 02:57:35;;;;;;;10.90;2.10;;;;;;;;;;4898268;29;20028;-79
2023/09/30 03:00:11;;;;;;;8.02;2.33;;;;;;;;;;4899664;29;20923;-79
2023/09/30 03:02:37;;;;;;;6.68;1.60;;;;;;;;;;4899868;29;20056;-80
2023/09/30 03:05:03;;;;;;;9.85;2.30;;;;;;;;;;4899549;29;20060;-79
2023/09/30 03:07:33;;;;;;;8.35;1.55;;;;;;;;;;4899724;29;20076;-79
2023/09/30 03:10:00;;;;;;;7.50;1.47;;;;;;;;;;4900776;29;20017;-79
2023/09/30 03:12:26;;;;;;;8.80;1.85;;;;;;;;;;4903459;29;20611;-79
2023/09/30 03:14:55;;;;;;;9.85;2.25;;;;;;;;;;4903282;29;20459;-79
2023/09/30 03:17:22;;;;;;;7.72;1.67;;;;;;;;;;4903244;29;20491;-80
2023/09/30 03:19:48;;;;;;;5.38;1.67;;;;;;;;;;4903955;29;20035;-80
2023/09/30 03:22:15;;;;;;;7.47;1.75;;;;;;;;;;4903843;29;20029;-80
2023/09/30 03:24:41;;;;;;;7.63;1.60;;;;;;;;;;4903686;29;20028;-80
2023/09/30 03:27:07;;;;;;;8.90;1.75;;;;;;;;;;4903061;29;20040;-79
2023/09/30 03:29:36;;;;;;;8.82;2.03;;;;;;;;;;4902825;29;20056;-79
2023/09/30 03:32:02;;;;;;;7.72;2.03;;;;;;;;;;4903591;29;20032;-79
2023/09/30 03:34:28;;;;;;;4.68;1.80;;;;;;;;;;4902905;29;20039;-79
2023/09/30 03:36:55;;;;;;;7.25;1.90;;;;;;;;;;4903297;29;20075;-80
2023/09/30 03:39:26;;;;;;;6.25;1.85;;;;;;;;;;4903212;29;20032;-80
2023/09/30 03:41:54;;;;;;;9.15;1.70;;;;;;;;;;4903319;29;20052;-80
2023/09/30 03:44:20;;;;;;;6.97;2.17;;;;;;;;;;4903307;29;20024;-80
2023/09/30 03:46:46;;;;;;;7.63;1.75;;;;;;;;;;4902864;29;20088;-79
2023/09/30 03:49:13;;;;;;;4.18;1.42;;;;;;;;;;4901478;29;20044;-79
2023/09/30 03:51:39;;;;;;;5.93;2.00;;;;;;;;;;4902972;29;20028;-80
2023/09/30 03:54:08;;;;;;;3.53;1.55;;;;;;;;;;4902425;29;20076;-80
2023/09/30 03:56:34;;;;;;;5.33;2.00;;;;;;;;;;4903027;29;20031;-80
2023/09/30 03:59:00;;;;;;;9.43;2.10;;;;;;;;;;4901240;29;20103;-80
2023/09/30 04:01:27;;;;;;;7.18;2.13;;;;;;;;;;4902810;29;20029;-79
2023/09/30 04:03:56;;;;;;;10.73;2.28;;;;;;;;;;4902721;29;20029;-79
2023/09/30 04:06:22;;;;;;;8.23;2.00;;;;;;;;;;4902800;29;20032;-79
2023/09/30 04:08:48;;;;;;;11.95;2.65;;;;;;;;;;4901395;29;20458;-79
2023/09/30 04:11:18;;;;;;;8.13;2.25;;;;;;;;;;4902010;29;20048;-79
2023/09/30 04:13:47;;;;;;;5.95;2.17;;;;;;;;;;4902680;29;20025;-79
2023/09/30 04:16:13;;;;;;;8.00;2.38;;;;;;;;;;4902314;29;20032;-79
2023/09/30 04:18:41;;;;;;;6.22;2.10;;;;;;;;;;4902115;29;20487;-79
2023/09/30 04:21:07;;;;;;;5.70;1.90;;;;;;;;;;4903176;29;20062;-79
2023/09/30 04:23:36;;;;;;;6.18;2.10;;;;;;;;;;4902534;29;20032;-79
2023/09/30 04:26:02;;;;;;;8.73;2.15;;;;;;;;;;4902042;29;20027;-79
2023/09/30 04:28:28;;;;;;;9.13;2.10;;;;;;;;;;4902193;29;20059;-79
2023/09/30 04:30:54;;;;;;;4.90;1.92;;;;;;;;;;4902118;29;20195;-79
2023/09/30 04:33:21;;;;;;;5.90;1.85;;;;;;;;;;4902031;29;20021;-79
2023/09/30 04:35:48;;;;;;;9.93;2.30;;;;;;;;;;4901907;29;20029;-79
2023/09/30 04:38:14;;;;;;;7.10;1.83;;;;;;;;;;4900357;29;20092;-79
2023/09/30 04:40:40;;;;;;;6.65;2.20;;;;;;;;;;4901696;29;20111;-79
2023/09/30 04:43:06;;;;;;;10.07;2.33;;;;;;;;;;4901945;29;20027;-79
2023/09/30 04:45:33;;;;;;;10.00;2.00;;;;;;;;;;4901561;29;20039;-79
2023/09/30 04:47:59;;;;;;;7.00;2.00;;;;;;;;;;4902061;29;20036;-79
2023/09/30 04:50:25;;;;;;;6.38;2.00;;;;;;;;;;4901751;29;20120;-79
2023/09/30 04:52:54;;;;;;;5.20;2.08;;;;;;;;;;4901391;29;20056;-79
2023/09/30 04:55:20;;;;;;;9.23;2.00;;;;;;;;;;4902026;29;20120;-80
2023/09/30 04:57:47;;;;;;;6.78;1.90;;;;;;;;;;4899731;29;20020;-81
2023/09/30 05:00:14;;;;;;;7.18;2.08;;;;;;;;;;4902257;29;20111;-80
2023/09/30 05:02:40;;;;;;;9.70;2.38;;;;;;;;;;4901568;29;20033;-81
2023/09/30 05:05:06;;;;;;;5.90;1.77;;;;;;;;;;4901996;29;20412;-81
2023/09/30 05:07:34;;;;;;;5.32;2.20;;;;;;;;;;4901265;29;20035;-80
2023/09/30 05:10:00;;;;;;;7.10;1.98;;;;;;;;;;4899939;29;20028;-80
2023/09/30 05:12:26;;;;;;;3.35;1.77;;;;;;;;;;4901447;29;20035;-80
2023/09/30 05:14:52;;;;;;;6.95;1.95;;;;;;;;;;4901650;29;20028;-80
2023/09/30 05:17:24;;;;;;;4.90;1.90;;;;;;;;;;4902006;29;20032;-81
2023/09/30 05:19:50;;;;;;;9.02;1.95;;;;;;;;;;4901799;29;20044;-80
2023/09/30 05:22:21;;;;;;;8.88;2.15;;;;;;;;;;4901492;29;20033;-81
2023/09/30 05:24:47;;;;;;;4.75;1.95;;;;;;;;;;4901497;29;20024;-80
2023/09/30 05:27:13;;;;;;;5.82;2.28;;;;;;;;;;4902011;29;20028;-81
2023/09/30 05:29:39;;;;;;;6.40;1.90;;;;;;;;;;4901808;29;20159;-80
2023/09/30 05:32:06;;;;;;;5.82;1.92;;;;;;;;;;4901254;29;20029;-79
2023/09/30 05:34:32;;;;;;;7.28;2.28;;;;;;;;;;4900671;29;20058;-79
2023/09/30 05:36:58;;;;;;;5.93;1.80;;;;;;;;;;4900579;29;20468;-79
2023/09/30 05:39:25;;;;;;;8.65;2.25;;;;;;;;;;4899823;29;20035;-79
2023/09/30 05:41:51;;;;;;;8.30;2.17;;;;;;;;;;4900348;29;20031;-79
2023/09/30 05:44:17;;;;;;;9.13;1.98;;;;;;;;;;4898703;29;20024;-78
2023/09/30 05:46:43;;;;;;;8.30;2.08;;;;;;;;;;4900757;29;20096;-79
2023/09/30 05:49:11;;;;;;;5.68;2.28;;;;;;;;;;4900634;29;20032;-79
2023/09/30 05:51:37;;;;;;;6.03;1.73;;;;;;;;;;4900486;29;20025;-79
2023/09/30 05:54:04;;;;;;;4.30;2.00;;;;;;;;;;4900667;29;20063;-79
2023/09/30 05:56:30;;;;;;;10.88;1.92;;;;;;;;;;4899837;29;20064;-79
2023/09/30 05:58:57;;;;;;;8.50;2.00;;;;;;;;;;4898402;29;20091;-79
2023/09/30 06:01:23;;;;;;;6.20;2.10;;;;;;;;;;4898394;29;20416;-79
2023/09/30 06:03:49;;;;;;;3.60;1.80;;;;;;;;;;4899776;29;20424;-79
2023/09/30 06:06:15;;;;;;;5.35;1.77;;;;;;;;;;4899881;29;20392;-80
2023/09/30 06:08:45;;;;;;;5.60;2.00;;;;;;;;;;4899624;29;20073;-79
2023/09/30 06:11:24;;;;;;;7.35;1.67;;;;;;;;;;4900520;29;20031;-79
2023/09/30 06:13:50;;;;;;;7.00;1.85;;;;;;;;;;4898331;29;20024;-79
2023/09/30 06:16:17;;;;;;;7.25;2.00;;;;;;;;;;4899505;29;20039;-79
2023/09/30 06:18:45;;;;;;;6.95;2.00;;;;;;;;;;4899690;29;20491;-79
2023/09/30 06:21:20;;;;;;;7.13;1.90;;;;;;;;;;4899830;29;20029;-79
2023/09/30 06:23:47;;;;;;;7.68;2.30;;;;;;;;;;4899332;29;20369;-79
2023/09/30 06:26:12;;;;;;;4.13;1.60;;;;;;;;;;4898878;29;20472;-80
2023/09/30 06:28:41;;;;;;;6.97;2.17;;;;;;;;;;4899326;29;20112;-80
2023/09/30 06:31:08;;;;;;;5.65;2.03;;;;;;;;;;4898971;29;20081;-80
2023/09/30 06:33:34;;;;;;;7.93;2.42;;;;;;;;;;4897732;29;20433;-80
2023/09/30 06:36:02;;;;;;;8.48;1.95;;;;;;;;;;4899064;29;20060;-80
2023/09/30 06:38:28;;;;;;;4.80;1.65;;;;;;;;;;4899428;29;20076;-80
2023/09/30 06:40:54;;;;;;;6.25;1.85;;;;;;;;;;4898944;29;20528;-80
2023/09/30 06:43:20;;;;;;;2.78;1.63;;;;;;;;;;4898854;29;20033;-80
2023/09/30 06:45:46;;;;;;;8.65;1.83;;;;;;;;;;4898152;29;20025;-80
2023/09/30 06:48:13;;;;;;;6.30;2.45;;;;;;;;;;4899213;29;20107;-80
2023/09/30 06:50:49;;;;;;;7.78;3.00;;;;;;;;;;4898952;29;20103;-79
2023/09/30 06:53:16;;;;;;;4.95;2.95;;;;;;;;;;4899087;29;20446;-79
2023/09/30 06:55:43;;;;;;;9.93;3.42;;;;;;;;;;4898817;29;20473;-79
2023/09/30 06:58:10;;;;;;;7.32;3.53;;;;;;;;;;4896352;29;20074;-79
2023/09/30 07:00:36;;;;;;;6.97;2.95;;;;;;;;;;4899064;29;20017;-79
2023/09/30 07:03:02;;;;;;;7.95;2.47;;;;;;;;;;4899196;29;20060;-79
2023/09/30 07:05:28;;;;;;;7.05;2.65;;;;;;;;;;4898994;29;20029;-79
2023/09/30 07:07:54;;;;;;;8.75;3.28;;;;;;;;;;4898940;29;20039;-80
2023/09/30 07:10:20;;;;;;;6.07;2.85;;;;;;;;;;4899612;29;20035;-80
2023/09/30 07:12:47;;;;;;;7.07;4.40;;;;;;;;;;4898966;29;20032;-79
2023/09/30 07:15:13;;;;;;;9.27;4.28;;;;;;;;;;4898798;29;20127;-80
2023/09/30 07:17:39;;;;;;;9.38;4.18;;;;;;;;;;4899478;29;20372;-80
2023/09/30 07:20:07;;;;;;;7.82;3.72;;;;;;;;;;4898711;29;20479;-80
2023/09/30 07:22:34;;;;;;;7.03;2.55;;;;;;;;;;4898938;29;20035;-80
2023/09/30 07:25:00;;;;;;;9.15;2.60;;;;;;;;;;4898711;29;20067;-80
2023/09/30 07:27:26;;;;;;;6.32;1.95;;;;;;;;;;4898697;29;20084;-80
2023/09/30 07:29:52;;;;;;;5.03;1.90;;;;;;;;;;4898763;29;20029;-80
2023/09/30 07:32:19;;;;;;;5.47;1.63;;;;;;;;;;4898535;29;20039;-81
2023/09/30 07:34:45;;;;;;;6.35;1.80;;;;;;;;;;4898591;29;20032;-81
2023/09/30 07:37:11;;;;;;;3.90;1.33;;;;;;;;;;4898176;29;20467;-81
2023/09/30 07:39:37;;;;;;;5.78;1.40;;;;;;;;;;4898232;29;20074;-81
2023/09/30 07:42:03;;;;;;;3.05;1.13;;;;;;;;;;4898903;29;20029;-82
2023/09/30 07:44:29;;;;;;;6.63;1.80;;;;;;;;;;4897409;29;20036;-82
2023/09/30 07:46:55;;;;;;;4.47;1.25;;;;;;;;;;4899174;29;20582;-85
2023/09/30 07:49:21;;;;;;;4.85;1.40;;;;;;;;;;4898318;29;20111;-84
2023/09/30 07:51:47;;;;;;;5.28;1.30;;;;;;;;;;4898625;29;20107;-84
2023/09/30 07:54:13;;;;;;;7.40;1.33;;;;;;;;;;4898619;29;20108;-86
2023/09/30 07:56:39;;;;;;;5.88;1.30;;;;;;;;;;4900533;29;20028;-86
2023/09/30 07:59:05;;;;;;;4.68;1.10;;;;;;;;;;4899966;29;20051;-87
2023/09/30 08:01:31;;;;;;;5.78;1.70;;;;;;;;;;4900858;29;20032;-84
2023/09/30 08:03:58;;;;;;;6.57;1.65;;;;;;;;;;4901551;29;20060;-83
2023/09/30 08:06:24;;;;;;;6.45;1.65;;;;;;;;;;4901643;29;20025;-84
2023/09/30 08:08:50;;;;;;;5.28;1.20;;;;;;;;;;4901406;29;20032;-84
2023/09/30 08:11:18;;;;;;;5.72;1.25;;;;;;;;;;4900118;29;20040;-83
2023/09/30 08:13:44;;;;;;;8.35;1.45;;;;;;;;;;4901396;29;20043;-84
2023/09/30 08:16:10;;;;;;;4.90;1.30;;;;;;;;;;4901597;29;20044;-83
2023/09/30 08:18:36;;;;;;;7.93;1.50;;;;;;;;;;4901271;29;20501;-84
2023/09/30 08:21:02;;;;;;;4.13;1.30;;;;;;;;;;4901535;29;20081;-84
2023/09/30 08:23:28;;;;;;;7.55;1.70;;;;;;;;;;4901130;29;20387;-84
2023/09/30 08:25:58;;;;;;;6.63;1.40;;;;;;;;;;4901178;29;20029;-84
2023/09/30 08:28:24;;;;;;;;;;;;;;;;;;4901784;29;20116;-84
2023/09/30 08:30:52;;;;;;;6.43;1.30;;;;;;;;;;4901511;29;20010;-84
2023/09/30 08:33:18;;;;;;;6.88;1.30;;;;;;;;;;4901108;29;20850;-84
2023/09/30 08:35:44;;;;;;;7.38;1.45;;;;;;;;;;4900874;29;20028;-84
2023/09/30 08:38:10;;;;;;;6.28;1.40;;;;;;;;;;4900777;29;20033;-83
2023/09/30 08:40:36;;;;;;;6.03;1.17;;;;;;;;;;4900741;29;20471;-83
2023/09/30 08:43:04;;;;;;;6.45;1.30;;;;;;;;;;4899582;29;20048;-83
2023/09/30 08:45:34;;;;;;;5.22;1.40;;;;;;;;;;4900665;29;20033;-85
2023/09/30 08:48:05;;;;;;;5.95;1.63;;;;;;;;;;4901054;29;20093;-87
2023/09/30 08:50:31;;;;;;;6.78;1.58;;;;;;;;;;4899802;29;20028;-84
2023/09/30 08:52:57;;;;;;;7.03;1.40;;;;;;;;;;4900692;29;20056;-88
2023/09/30 08:55:25;;;;;;;8.25;1.50;;;;;;;;;;4899704;29;20036;-87
2023/09/30 08:57:51;;;;;;;5.80;1.40;;;;;;;;;;4898863;29;20044;-87
2023/09/30 09:00:17;;;;;;;8.25;1.30;;;;;;;;;;4899000;29;20148;-87
2023/09/30 09:02:43;;;;;;;7.40;1.60;;;;;;;;;;4918601;29;20036;-87
2023/09/30 09:05:10;;;;;;;8.60;1.30;;;;;;;;;;4917882;29;20062;-87
2023/09/30 09:07:36;;;;;;;9.13;1.38;;;;;;;;;;4917406;29;20509;-86
2023/09/30 09:10:05;;;;;;;5.35;1.10;;;;;;;;;;4918049;29;20032;-86
2023/09/30 09:12:32;;;;;;;7.05;1.05;;;;;;;;;;4917948;29;20039;-87
2023/09/30 09:14:59;;;;;;;9.13;1.70;;;;;;;;;;4918146;29;20475;-87
2023/09/30 09:17:40;;;;;;;5.20;0.95;;;;;;;;;;4918703;29;20084;-86
2023/09/30 09:20:09;;;;;;;5.97;1.27;;;;;;;;;;4918023;29;20036;-87
2023/09/30 09:22:43;;;;;;;5.13;1.30;;;;;;;;;;4918607;29;20114;-87
2023/09/30 09:25:09;;;;;;;6.20;1.00;;;;;;;;;;4917858;29;20354;-87
2023/09/30 09:27:36;;;;;;;6.25;1.20;;;;;;;;;;4918114;29;20024;-87
2023/09/30 09:30:28;;;;;;;3.97;1.20;;;;;;;;;;4903275;29;20100;-87
2023/09/30 09:32:55;;;;;;;6.93;1.30;;;;;;;;;;4896843;29;20041;-88
2023/09/30 09:35:22;;;;;;;6.78;1.38;;;;;;;;;;4913193;29;20032;-87
2023/09/30 09:37:58;;;;;;;10.30;1.60;;;;;;;;;;4917818;29;20028;-87
2023/09/30 09:40:26;;;;;;;7.00;1.33;;;;;;;;;;4917583;29;20115;-88
2023/09/30 09:42:54;;;;;;;5.57;1.50;;;;;;;;;;4917466;29;20060;-87
2023/09/30 09:45:23;;;;;;;7.75;1.67;;;;;;;;;;4915007;29;20040;-87
2023/09/30 09:47:51;;;;;;;6.65;1.05;;;;;;;;;;4898650;29;20043;-87
2023/09/30 09:50:17;;;;;;;5.75;1.10;;;;;;;;;;4899018;29;20037;-87
2023/09/30 09:52:45;;;;;;;4.55;1.20;;;;;;;;;;4899396;29;20045;-87
2023/09/30 09:55:11;;;;;;;6.97;1.27;;;;;;;;;;4898516;29;20028;-87
2023/09/30 09:57:38;;;;;;;4.13;1.58;;;;;;;;;;4898446;29;20495;-88
2023/09/30 10:00:13;;;;;;;7.38;1.33;;;;;;;;;;4897889;29;20056;-86
2023/09/30 10:02:40;;;;;;;6.07;1.38;;;;;;;;;;4899255;29;20056;-87
2023/09/30 10:05:07;;;;;;;5.07;1.33;;;;;;;;;;4898780;29;20134;-87
2023/09/30 10:07:48;;;;;;;4.40;1.15;;;;;;;;;;4898262;29;20033;-87
2023/09/30 10:10:16;;;;;;;9.05;1.60;;;;;;;;;;4907813;29;20028;-87
2023/09/30 10:12:42;;;;;;;6.75;1.30;;;;;;;;;;4917049;29;20174;-87
2023/09/30 10:15:27;;;;;;;4.05;1.33;;;;;;;;;;4911808;29;20020;-87
2023/09/30 10:18:06;;;;;;;5.10;1.25;;;;;;;;;;4897946;29;20476;-87
2023/09/30 10:20:32;;;;;;;;;;;;;;;;;;4898968;29;20035;-87
2023/09/30 10:23:17;;;;;;;5.22;1.35;;;;;;;;;;4916837;29;19911;-87
2023/09/30 10:25:49;;;;;;;5.18;1.08;;;;;;;;;;4916852;29;20119;-87
2023/09/30 10:28:34;;;;;;;5.20;1.08;;;;;;;;;;4916566;29;20270;-87
2023/09/30 10:31:18;;;;;;;6.82;1.10;;;;;;;;;;4917352;29;20056;-87
2023/09/30 10:34:03;;;;;;;5.22;1.40;;;;;;;;;;4916711;29;20139;-87
2023/09/30 10:36:34;;;;;;;5.13;1.10;;;;;;;;;;4917168;29;20115;-87
2023/09/30 10:39:00;;;;;;;5.22;1.30;;;;;;;;;;4898707;29;20123;-86
2023/09/30 10:41:45;;;;;;;5.00;1.17;;;;;;;;;;4915717;29;20087;-86
2023/09/30 10:44:27;;;;;;;4.35;1.00;;;;;;;;;;4898287;29;20475;-87
2023/09/30 10:46:54;;;;;;;5.22;1.10;;;;;;;;;;4897913;29;20534;-87
2023/09/30 10:49:23;;;;;;;5.35;1.40;;;;;;;;;;4902949;29;20127;-87
2023/09/30 10:51:53;;;;;;;4.60;1.30;;;;;;;;;;4916663;29;20029;-86
2023/09/30 10:54:19;;;;;;;;;;;;;;;;;;4917155;29;20032;-86
2023/09/30 10:56:45;;;;;;;5.65;1.33;;;;;;;;;;4916598;29;20396;-87
2023/09/30 10:59:17;;;;;;;4.75;1.40;;;;;;;;;;4904057;29;20056;-87
2023/09/30 11:01:44;;;;;;;5.63;1.27;;;;;;;;;;4897773;29;20036;-86
2023/09/30 11:04:10;;;;;;;5.03;1.20;;;;;;;;;;4897908;29;20037;-86
2023/09/30 11:06:40;;;;;;;6.40;1.20;;;;;;;;;;4898153;29;20036;-86
2023/09/30 11:09:12;;;;;;;6.70;1.30;;;;;;;;;;4910808;29;20036;-88
2023/09/30 11:11:43;;;;;;;7.00;1.50;;;;;;;;;;4917216;29;20051;-88
2023/09/30 11:14:18;;;;;;;7.35;1.23;;;;;;;;;;4916374;29;20080;-88
2023/09/30 11:16:44;;;;;;;3.72;1.10;;;;;;;;;;4917071;29;20467;-88
2023/09/30 11:19:11;;;;;;;5.47;1.48;;;;;;;;;;4917181;29;20060;-89
2023/09/30 11:21:37;;;;;;;4.97;1.00;;;;;;;;;;4915960;29;20024;-88
2023/09/30 11:24:03;;;;;;;5.85;1.23;;;;;;;;;;4916762;29;20490;-87
2023/09/30 11:26:33;;;;;;;6.75;1.17;;;;;;;;;;4916271;29;20498;-87
2023/09/30 11:28:59;;;;;;;;;;;;;;;;;;4917435;29;20534;-87
2023/09/30 11:31:33;;;;;;;6.32;1.45;;;;;;;;;;4918010;29;19994;-87
2023/09/30 11:34:03;;;;;;;3.63;1.58;;;;;;;;;;4920565;29;20036;-87
2023/09/30 11:36:30;;;;;;;5.18;1.20;;;;;;;;;;4920475;29;20115;-87
2023/09/30 11:38:56;;;;;;;6.90;1.27;;;;;;;;;;4920438;29;20493;-87
2023/09/30 11:41:22;;;;;;;6.95;1.33;;;;;;;;;;4920341;29;20115;-87
2023/09/30 11:44:01;;;;;;;3.17;0.75;;;;;;;;;;4919898;29;20024;-86
2023/09/30 11:46:27;;;;;;;5.72;1.42;;;;;;;;;;4919524;29;20510;-86
2023/09/30 11:49:04;;;;;;;7.05;1.23;;;;;;;;;;4921064;29;20028;-86
2023/09/30 11:51:44;;;;;;;6.30;1.10;;;;;;;;;;4919476;29;20107;-86
2023/09/30 11:54:10;;;;;;;6.85;1.35;;;;;;;;;;4920453;29;20036;-86
2023/09/30 11:56:37;;;;;;;6.65;1.38;;;;;;;;;;4919538;29;20108;-86
2023/09/30 11:59:04;;;;;;;5.85;1.13;;;;;;;;;;4920248;29;20408;-86
2023/09/30 12:01:32;;;;;;;5.72;1.15;;;;;;;;;;4920308;29;20020;-86
2023/09/30 12:03:58;;;;;;;4.25;1.20;;;;;;;;;;4919809;29;20063;-86
2023/09/30 12:06:24;;;;;;;6.50;1.10;;;;;;;;;;4919921;29;20367;-86
2023/09/30 12:08:51;;;;;;;5.20;1.30;;;;;;;;;;4919514;29;20119;-84
2023/09/30 12:11:17;;;;;;;5.07;1.45;;;;;;;;;;4919215;29;20064;-84
2023/09/30 12:13:48;;;;;;;5.20;1.67;;;;;;;;;;4919311;29;20035;-85
2023/09/30 12:16:15;;;;;;;5.03;1.23;;;;;;;;;;4918930;29;20481;-84
2023/09/30 12:18:41;;;;;;;2.92;0.93;;;;;;;;;;4919768;29;20114;-85
2023/09/30 12:21:12;;;;;;;4.60;1.00;;;;;;;;;;4919653;29;20028;-84
2023/09/30 12:23:38;;;;;;;4.30;1.08;;;;;;;;;;4919352;29;20087;-84
2023/09/30 12:26:05;;;;;;;3.17;1.27;;;;;;;;;;4918966;29;20119;-84
2023/09/30 12:28:32;;;;;;;4.68;1.02;;;;;;;;;;4919346;29;20399;-84
2023/09/30 12:30:58;;;;;;;4.55;1.17;;;;;;;;;;4919690;29;20028;-84
2023/09/30 12:33:24;;;;;;;4.55;0.88;;;;;;;;;;4918892;29;20028;-85
2023/09/30 12:35:51;;;;;;;4.90;1.00;;;;;;;;;;4918704;29;20054;-85
2023/09/30 12:38:17;;;;;;;3.95;1.35;;;;;;;;;;4918621;29;20036;-85
2023/09/30 12:40:43;;;;;;;4.07;1.00;;;;;;;;;;4919859;29;20032;-83
2023/09/30 12:43:10;;;;;;;6.43;1.20;;;;;;;;;;4919985;29;20036;-84
2023/09/30 12:45:38;;;;;;;4.70;0.98;;;;;;;;;;4918692;29;20079;-83
2023/09/30 12:48:04;;;;;;;3.10;0.70;;;;;;;;;;4918749;29;20043;-84
2023/09/30 12:50:32;;;;;;;2.85;0.90;;;;;;;;;;4919361;29;20024;-84
2023/09/30 12:52:59;;;;;;;3.10;0.95;;;;;;;;;;4918567;29;20029;-83
2023/09/30 12:55:26;;;;;;;3.42;1.00;;;;;;;;;;4919379;29;20527;-85
2023/09/30 12:57:53;;;;;;;5.53;1.08;;;;;;;;;;4919722;29;20060;-86
2023/09/30 13:00:19;;;;;;;5.95;1.20;;;;;;;;;;4917880;29;20112;-83
2023/09/30 13:02:46;;;;;;;6.32;1.30;;;;;;;;;;4918103;29;20025;-82
2023/09/30 13:05:12;;;;;;;5.18;0.90;;;;;;;;;;4918002;29;20083;-83
2023/09/30 13:07:38;;;;;;;4.72;1.20;;;;;;;;;;4919784;29;20091;-83
2023/09/30 13:10:05;;;;;;;5.55;1.20;;;;;;;;;;4919278;29;20028;-84
2023/09/30 13:12:37;;;;;;;9.10;1.40;;;;;;;;;;4919475;29;20028;-84
2023/09/30 13:15:03;;;;;;;2.38;0.88;;;;;;;;;;4918518;29;20087;-85
2023/09/30 13:17:29;;;;;;;4.10;1.00;;;;;;;;;;4918613;29;20039;-84
2023/09/30 13:19:55;;;;;;;4.00;1.00;;;;;;;;;;4918055;29;20110;-85
2023/09/30 13:22:21;;;;;;;4.57;1.38;;;;;;;;;;4919088;29;20391;-81
2023/09/30 13:24:47;;;;;;;3.22;0.90;;;;;;;;;;4918085;29;20032;-81
2023/09/30 13:27:16;;;;;;;5.60;0.90;;;;;;;;;;4917942;29;20368;-81
2023/09/30 13:29:43;;;;;;;5.60;1.08;;;;;;;;;;4919148;29;20036;-81
2023/09/30 13:32:10;;;;;;;4.30;1.20;;;;;;;;;;4919262;29;20375;-81
2023/09/30 13:34:36;;;;;;;3.63;0.70;;;;;;;;;;4918992;29;20031;-81
2023/09/30 13:37:02;;;;;;;6.13;1.17;;;;;;;;;;4918982;29;20028;-81
2023/09/30 13:39:29;;;;;;;4.35;1.13;;;;;;;;;;4919145;29;20107;-81
2023/09/30 13:41:55;;;;;;;4.65;0.93;;;;;;;;;;4919111;29;20035;-82
2023/09/30 13:44:21;;;;;;;4.35;0.90;;;;;;;;;;4918822;29;20064;-81
2023/09/30 13:46:48;;;;;;;4.03;1.20;;;;;;;;;;4918792;29;20471;-81
2023/09/30 13:49:14;;;;;;;5.13;0.93;;;;;;;;;;4918884;29;20463;-81
2023/09/30 13:51:40;;;;;;;4.32;1.15;;;;;;;;;;4918669;29;20024;-81
2023/09/30 13:54:09;;;;;;;5.10;0.88;;;;;;;;;;4918345;29;20031;-81
2023/09/30 13:56:36;;;;;;;3.03;1.10;;;;;;;;;;4918841;29;20024;-81
2023/09/30 13:59:02;;;;;;;3.10;0.90;;;;;;;;;;4917065;29;20052;-81
2023/09/30 14:01:28;;;;;;;7.13;1.35;;;;;;;;;;4917129;29;20054;-81
2023/09/30 14:03:55;;;;;;;4.57;0.95;;;;;;;;;;4918338;29;20099;-81
2023/09/30 14:06:21;;;;;;;2.70;0.90;;;;;;;;;;4918306;29;20055;-81
2023/09/30 14:08:47;;;;;;;11.18;2.20;;;;;;;;;;4918857;29;20046;-81
2023/09/30 14:11:13;;;;;;;15.35;4.88;;;;;;;;;;4918436;29;20027;-82
2023/09/30 14:13:39;;;;;;;4.75;1.00;;;;;;;;;;4918622;29;20055;-81
2023/09/30 14:16:06;;;;;;;2.55;0.60;;;;;;;;;;4918456;29;20396;-81
2023/09/30 14:18:33;;;;;;;4.43;0.93;;;;;;;;;;4918355;29;20075;-81
2023/09/30 14:20:59;;;;;;;4.80;1.27;;;;;;;;;;4918297;29;20457;-82
2023/09/30 14:23:25;;;;;;;4.18;1.13;;;;;;;;;;4918068;29;20028;-81
2023/09/30 14:25:55;;;;;;;4.70;1.20;;;;;;;;;;4918159;29;20088;-80
2023/09/30 14:28:21;;;;;;;4.80;0.95;;;;;;;;;;4918868;29;20566;-80
2023/09/30 14:30:50;;;;;;;6.50;1.10;;;;;;;;;;4919465;29;20486;-81
2023/09/30 14:33:16;;;;;;;3.08;0.90;;;;;;;;;;4919538;29;20024;-81
2023/09/30 14:35:43;;;;;;;4.22;0.95;;;;;;;;;;4918012;29;20106;-80
2023/09/30 14:38:11;;;;;;;7.25;1.33;;;;;;;;;;4918258;29;20024;-80
2023/09/30 14:40:40;;;;;;;6.95;1.52;;;;;;;;;;4918118;29;20024;-80
2023/09/30 14:43:09;;;;;;;5.07;1.00;;;;;;;;;;4917762;29;20039;-80
2023/09/30 14:45:41;;;;;;;7.63;1.67;;;;;;;;;;4917844;29;20040;-80